createdAt,value
2023-02-23T00:00:22.733Z,1008.48
2023-02-23T00:01:23.396Z,1008.49
2023-02-23T00:02:22.754Z,1008.47
2023-02-23T00:03:23.421Z,1008.46
2023-02-23T00:04:22.696Z,1008.47
2023-02-23T00:05:22.669Z,1008.50
2023-02-23T00:06:22.670Z,1008.47
2023-02-23T00:07:23.335Z,1008.48
2023-02-23T00:08:22.655Z,1008.46
2023-02-23T00:09:23.405Z,1008.44
2023-02-23T00:10:23.298Z,1008.42
2023-02-23T00:11:22.603Z,1008.42
2023-02-23T00:12:23.281Z,1008.42
2023-02-23T00:13:23.287Z,1008.43
2023-02-23T00:14:22.576Z,1008.44
2023-02-23T00:15:23.250Z,1008.44
2023-02-23T00:16:22.623Z,1008.45
2023-02-23T00:17:22.538Z,1008.45
2023-02-23T00:18:22.579Z,1008.47
2023-02-23T00:19:23.206Z,1008.45
2023-02-23T00:20:23.196Z,1008.46
2023-02-23T00:21:22.509Z,1008.48
2023-02-23T00:22:22.494Z,1008.45
2023-02-23T00:23:23.186Z,1008.46
2023-02-23T00:24:23.160Z,1008.46
2023-02-23T00:25:23.149Z,1008.48
2023-02-23T00:26:23.125Z,1008.47
2023-02-23T00:27:22.437Z,1008.52
2023-02-23T00:28:22.459Z,1008.55
2023-02-23T00:29:23.098Z,1008.51
2023-02-23T00:30:23.090Z,1008.54
2023-02-23T00:31:23.102Z,1008.56
2023-02-23T00:32:22.466Z,1008.51
2023-02-23T00:33:23.076Z,1008.51
2023-02-23T00:34:22.364Z,1008.49
2023-02-23T00:35:23.045Z,1008.49
2023-02-23T00:36:23.031Z,1008.49
2023-02-23T00:37:23.095Z,1008.49
2023-02-23T00:38:23.022Z,1008.48
2023-02-23T00:39:22.317Z,1008.45
2023-02-23T00:40:23.011Z,1008.44
2023-02-23T00:41:22.970Z,1008.48
2023-02-23T00:42:22.959Z,1008.43
2023-02-23T00:43:22.949Z,1008.43
2023-02-23T00:44:22.982Z,1008.44
2023-02-23T00:45:22.262Z,1008.46
2023-02-23T00:46:22.270Z,1008.46
2023-02-23T00:47:22.279Z,1008.46
2023-02-23T00:48:22.888Z,1008.43
2023-02-23T00:49:22.908Z,1008.43
2023-02-23T00:50:22.190Z,1008.37
2023-02-23T00:51:22.210Z,1008.44
2023-02-23T00:52:22.160Z,1008.43
2023-02-23T00:53:22.181Z,1008.45
2023-02-23T00:54:22.182Z,1008.45
2023-02-23T00:55:22.822Z,1008.48
2023-02-23T00:56:22.115Z,1008.47
2023-02-23T00:57:22.125Z,1008.46
2023-02-23T00:58:22.793Z,1008.45
2023-02-23T00:59:22.112Z,1008.47
2023-02-23T01:00:22.764Z,1008.43
2023-02-23T01:01:22.274Z,1008.48
2023-02-23T01:02:22.060Z,1008.47
2023-02-23T01:03:22.067Z,1008.47
2023-02-23T01:04:22.741Z,1008.47
2023-02-23T01:05:22.712Z,1008.47
2023-02-23T01:06:22.013Z,1008.46
2023-02-23T01:07:22.009Z,1008.49
2023-02-23T01:08:21.983Z,1008.46
2023-02-23T01:09:22.148Z,1008.47
2023-02-23T01:10:22.662Z,1008.49
2023-02-23T01:11:22.650Z,1008.47
2023-02-23T01:12:22.630Z,1008.48
2023-02-23T01:13:22.620Z,1008.49
2023-02-23T01:14:21.942Z,1008.49
2023-02-23T01:15:22.600Z,1008.51
2023-02-23T01:16:21.919Z,1008.47
2023-02-23T01:17:22.578Z,1008.49
2023-02-23T01:18:22.564Z,1008.46
2023-02-23T01:19:21.890Z,1008.49
2023-02-23T01:20:21.859Z,1008.45
2023-02-23T01:21:22.536Z,1008.52
2023-02-23T01:22:21.829Z,1008.46
2023-02-23T01:23:22.510Z,1008.46
2023-02-23T01:24:22.523Z,1008.45
2023-02-23T01:25:21.790Z,1008.46
2023-02-23T01:26:21.801Z,1008.45
2023-02-23T01:27:22.472Z,1008.42
2023-02-23T01:28:22.507Z,1008.45
2023-02-23T01:29:21.761Z,1008.45
2023-02-23T01:30:21.730Z,1008.42
2023-02-23T01:31:22.110Z,1008.43
2023-02-23T01:32:22.425Z,1008.42
2023-02-23T01:33:21.732Z,1008.44
2023-02-23T01:34:22.416Z,1008.42
2023-02-23T01:35:22.407Z,1008.43
2023-02-23T01:36:22.362Z,1008.42
2023-02-23T01:37:21.690Z,1008.41
2023-02-23T01:38:21.661Z,1008.45
2023-02-23T01:39:21.723Z,1008.38
2023-02-23T01:40:21.635Z,1008.42
2023-02-23T01:41:21.649Z,1008.41
2023-02-23T01:42:22.303Z,1008.43
2023-02-23T01:43:21.615Z,1008.38
2023-02-23T01:44:21.648Z,1008.37
2023-02-23T01:45:22.287Z,1008.42
2023-02-23T01:46:21.629Z,1008.41
2023-02-23T01:47:21.565Z,1008.40
2023-02-23T01:48:21.557Z,1008.38
2023-02-23T01:49:21.566Z,1008.46
2023-02-23T01:50:22.227Z,1008.41
2023-02-23T01:51:22.217Z,1008.42
2023-02-23T01:52:22.203Z,1008.43
2023-02-23T01:53:22.186Z,1008.41
2023-02-23T01:54:21.526Z,1008.43
2023-02-23T01:55:22.181Z,1008.46
2023-02-23T01:56:22.183Z,1008.44
2023-02-23T01:57:22.146Z,1008.45
2023-02-23T01:58:22.139Z,1008.44
2023-02-23T01:59:22.145Z,1008.41
2023-02-23T02:00:21.448Z,1008.43
2023-02-23T02:01:21.654Z,1008.44
2023-02-23T02:02:22.130Z,1008.40
2023-02-23T02:03:22.087Z,1008.41
2023-02-23T02:04:21.409Z,1008.39
2023-02-23T02:05:22.077Z,1008.42
2023-02-23T02:06:21.364Z,1008.38
2023-02-23T02:07:21.359Z,1008.38
2023-02-23T02:08:22.038Z,1008.38
2023-02-23T02:09:22.031Z,1008.37
2023-02-23T02:10:21.320Z,1008.40
2023-02-23T02:11:21.351Z,1008.37
2023-02-23T02:12:21.332Z,1008.30
2023-02-23T02:13:21.312Z,1008.34
2023-02-23T02:14:21.318Z,1008.36
2023-02-23T02:15:21.274Z,1008.34
2023-02-23T02:16:22.011Z,1008.31
2023-02-23T02:17:21.283Z,1008.34
2023-02-23T02:18:21.261Z,1008.28
2023-02-23T02:19:21.252Z,1008.27
2023-02-23T02:20:21.906Z,1008.28
2023-02-23T02:21:21.415Z,1008.26
2023-02-23T02:22:21.877Z,1008.27
2023-02-23T02:23:21.185Z,1008.29
2023-02-23T02:24:21.198Z,1008.23
2023-02-23T02:25:21.174Z,1008.28
2023-02-23T02:26:21.844Z,1008.24
2023-02-23T02:27:21.134Z,1008.28
2023-02-23T02:28:21.814Z,1008.24
2023-02-23T02:29:21.826Z,1008.26
2023-02-23T02:30:21.141Z,1008.30
2023-02-23T02:31:21.537Z,1008.25
2023-02-23T02:32:21.827Z,1008.27
2023-02-23T02:33:21.761Z,1008.27
2023-02-23T02:34:21.775Z,1008.26
2023-02-23T02:35:21.753Z,1008.28
2023-02-23T02:36:21.728Z,1008.24
2023-02-23T02:37:21.717Z,1008.23
2023-02-23T02:38:21.058Z,1008.25
2023-02-23T02:39:21.719Z,1008.27
2023-02-23T02:40:21.682Z,1008.23
2023-02-23T02:41:21.169Z,1008.24
2023-02-23T02:42:20.983Z,1008.20
2023-02-23T02:43:21.687Z,1008.24
2023-02-23T02:44:21.015Z,1008.20
2023-02-23T02:45:21.658Z,1008.17
2023-02-23T02:46:21.666Z,1008.18
2023-02-23T02:47:20.930Z,1008.20
2023-02-23T02:48:20.920Z,1008.15
2023-02-23T02:49:20.953Z,1008.20
2023-02-23T02:50:20.891Z,1008.19
2023-02-23T02:51:21.955Z,1008.20
2023-02-23T02:52:21.573Z,1008.19
2023-02-23T02:53:20.884Z,1008.21
2023-02-23T02:54:20.857Z,1008.25
2023-02-23T02:55:20.900Z,1008.25
2023-02-23T02:56:21.524Z,1008.23
2023-02-23T02:57:21.505Z,1008.21
2023-02-23T02:58:20.804Z,1008.21
2023-02-23T02:59:20.823Z,1008.22
2023-02-23T03:00:20.826Z,1008.22
2023-02-23T03:01:21.795Z,1008.21
2023-02-23T03:02:21.644Z,1008.24
2023-02-23T03:03:21.445Z,1008.25
2023-02-23T03:04:22.687Z,1008.25
2023-02-23T03:05:20.800Z,1008.23
2023-02-23T03:06:21.417Z,1008.29
2023-02-23T03:07:21.691Z,1008.24
2023-02-23T03:08:21.388Z,1008.28
2023-02-23T03:09:21.378Z,1008.29
2023-02-23T03:10:21.398Z,1008.30
2023-02-23T03:11:21.493Z,1008.27
2023-02-23T03:12:20.707Z,1008.29
2023-02-23T03:13:21.568Z,1008.28
2023-02-23T03:14:21.329Z,1008.33
2023-02-23T03:15:21.582Z,1008.30
2023-02-23T03:16:21.311Z,1008.34
2023-02-23T03:17:20.629Z,1008.33
2023-02-23T03:18:21.293Z,1008.34
2023-02-23T03:19:21.271Z,1008.31
2023-02-23T03:20:21.520Z,1008.33
2023-02-23T03:21:21.501Z,1008.36
2023-02-23T03:22:21.241Z,1008.36
2023-02-23T03:23:21.462Z,1008.36
2023-02-23T03:24:21.224Z,1008.31
2023-02-23T03:25:21.241Z,1008.34
2023-02-23T03:26:21.200Z,1008.34
2023-02-23T03:27:21.202Z,1008.32
2023-02-23T03:28:21.172Z,1008.40
2023-02-23T03:29:21.163Z,1008.39
2023-02-23T03:30:21.178Z,1008.39
2023-02-23T03:31:21.728Z,1008.41
2023-02-23T03:32:21.262Z,1008.40
2023-02-23T03:33:21.374Z,1008.38
2023-02-23T03:34:21.121Z,1008.35
2023-02-23T03:35:21.125Z,1008.37
2023-02-23T03:36:21.345Z,1008.35
2023-02-23T03:37:21.324Z,1008.33
2023-02-23T03:38:21.309Z,1008.35
2023-02-23T03:39:21.065Z,1008.34
2023-02-23T03:40:21.319Z,1008.32
2023-02-23T03:41:21.427Z,1008.35
2023-02-23T03:42:21.265Z,1008.38
2023-02-23T03:43:21.248Z,1008.38
2023-02-23T03:44:21.254Z,1008.32
2023-02-23T03:45:21.059Z,1008.34
2023-02-23T03:46:21.252Z,1008.36
2023-02-23T03:47:20.968Z,1008.34
2023-02-23T03:48:21.198Z,1008.35
2023-02-23T03:49:21.217Z,1008.33
2023-02-23T03:50:21.212Z,1008.36
2023-02-23T03:51:21.250Z,1008.34
2023-02-23T03:52:21.158Z,1008.34
2023-02-23T03:53:21.156Z,1008.35
2023-02-23T03:54:21.140Z,1008.35
2023-02-23T03:55:21.128Z,1008.33
2023-02-23T03:56:21.149Z,1008.37
2023-02-23T03:57:21.110Z,1008.36
2023-02-23T03:58:21.383Z,1008.36
2023-02-23T03:59:21.088Z,1008.37
2023-02-23T04:00:21.083Z,1008.36
2023-02-23T04:01:21.085Z,1008.35
2023-02-23T04:02:21.049Z,1008.36
2023-02-23T04:03:20.417Z,1008.36
2023-02-23T04:04:21.032Z,1008.34
2023-02-23T04:05:21.019Z,1008.38
2023-02-23T04:06:20.788Z,1008.33
2023-02-23T04:07:20.758Z,1008.34
2023-02-23T04:08:21.025Z,1008.32
2023-02-23T04:09:21.986Z,1008.35
2023-02-23T04:10:20.978Z,1008.36
2023-02-23T04:11:21.083Z,1008.32
2023-02-23T04:12:20.960Z,1008.34
2023-02-23T04:13:20.961Z,1008.35
2023-02-23T04:14:20.681Z,1008.36
2023-02-23T04:15:20.943Z,1008.35
2023-02-23T04:16:20.728Z,1008.40
2023-02-23T04:17:20.970Z,1008.37
2023-02-23T04:18:19.998Z,1008.39
2023-02-23T04:19:19.970Z,1008.35
2023-02-23T04:20:20.625Z,1008.37
2023-02-23T04:21:20.969Z,1008.35
2023-02-23T04:22:20.650Z,1008.38
2023-02-23T04:23:20.581Z,1008.33
2023-02-23T04:24:20.669Z,1008.38
2023-02-23T04:25:20.097Z,1008.37
2023-02-23T04:26:20.809Z,1008.36
2023-02-23T04:27:20.579Z,1008.35
2023-02-23T04:28:20.792Z,1008.38
2023-02-23T04:29:20.542Z,1008.34
2023-02-23T04:30:20.829Z,1008.41
2023-02-23T04:31:24.259Z,1008.37
2023-02-23T04:32:20.866Z,1008.37
2023-02-23T04:33:20.734Z,1008.37
2023-02-23T04:34:20.734Z,1008.39
2023-02-23T04:35:20.462Z,1008.40
2023-02-23T04:36:21.715Z,1008.38
2023-02-23T04:37:20.726Z,1008.39
2023-02-23T04:38:20.687Z,1008.42
2023-02-23T04:39:20.680Z,1008.39
2023-02-23T04:40:21.858Z,1008.41
2023-02-23T04:41:20.961Z,1008.37
2023-02-23T04:42:20.668Z,1008.40
2023-02-23T04:43:20.664Z,1008.42
2023-02-23T04:44:20.368Z,1008.41
2023-02-23T04:45:20.351Z,1008.45
2023-02-23T04:46:20.380Z,1008.44
2023-02-23T04:47:20.631Z,1008.40
2023-02-23T04:48:20.614Z,1008.41
2023-02-23T04:49:20.314Z,1008.37
2023-02-23T04:50:20.304Z,1008.46
2023-02-23T04:51:20.527Z,1008.42
2023-02-23T04:52:20.302Z,1008.40
2023-02-23T04:53:21.510Z,1008.45
2023-02-23T04:54:21.491Z,1008.47
2023-02-23T04:55:21.499Z,1008.44
2023-02-23T04:56:21.461Z,1008.45
2023-02-23T04:57:21.482Z,1008.44
2023-02-23T04:58:20.461Z,1008.42
2023-02-23T04:59:20.442Z,1008.47
2023-02-23T05:00:20.460Z,1008.45
2023-02-23T05:01:21.389Z,1008.48
2023-02-23T05:02:19.493Z,1008.45
2023-02-23T05:03:20.172Z,1008.44
2023-02-23T05:04:19.462Z,1008.45
2023-02-23T05:05:19.464Z,1008.47
2023-02-23T05:06:20.135Z,1008.48
2023-02-23T05:07:20.145Z,1008.47
2023-02-23T05:08:20.109Z,1008.49
2023-02-23T05:09:19.434Z,1008.50
2023-02-23T05:10:20.100Z,1008.48
2023-02-23T05:11:20.302Z,1008.47
2023-02-23T05:12:20.364Z,1008.52
2023-02-23T05:13:20.055Z,1008.50
2023-02-23T05:14:20.045Z,1008.51
2023-02-23T05:15:20.306Z,1008.54
2023-02-23T05:16:20.274Z,1008.57
2023-02-23T05:17:20.040Z,1008.55
2023-02-23T05:18:19.997Z,1008.55
2023-02-23T05:19:19.995Z,1008.58
2023-02-23T05:20:19.985Z,1008.59
2023-02-23T05:21:20.469Z,1008.58
2023-02-23T05:22:19.988Z,1008.58
2023-02-23T05:23:19.951Z,1008.59
2023-02-23T05:24:19.941Z,1008.59
2023-02-23T05:25:19.250Z,1008.62
2023-02-23T05:26:19.919Z,1008.63
2023-02-23T05:27:19.911Z,1008.67
2023-02-23T05:28:19.288Z,1008.66
2023-02-23T05:29:19.221Z,1008.63
2023-02-23T05:30:19.208Z,1008.67
2023-02-23T05:31:19.629Z,1008.66
2023-02-23T05:32:19.230Z,1008.68
2023-02-23T05:33:19.191Z,1008.61
2023-02-23T05:34:19.853Z,1008.67
2023-02-23T05:35:19.840Z,1008.68
2023-02-23T05:36:19.139Z,1008.63
2023-02-23T05:37:19.121Z,1008.68
2023-02-23T05:38:19.131Z,1008.68
2023-02-23T05:39:19.787Z,1008.62
2023-02-23T05:40:19.769Z,1008.58
2023-02-23T05:41:21.399Z,1008.62
2023-02-23T05:42:19.059Z,1008.65
2023-02-23T05:43:19.079Z,1008.64
2023-02-23T05:44:19.729Z,1008.60
2023-02-23T05:45:19.713Z,1008.65
2023-02-23T05:46:19.056Z,1008.63
2023-02-23T05:47:19.696Z,1008.62
2023-02-23T05:48:19.705Z,1008.61
2023-02-23T05:49:19.011Z,1008.65
2023-02-23T05:50:19.000Z,1008.59
2023-02-23T05:51:19.973Z,1008.62
2023-02-23T05:52:19.629Z,1008.61
2023-02-23T05:53:18.971Z,1008.60
2023-02-23T05:54:19.609Z,1008.60
2023-02-23T05:55:19.601Z,1008.58
2023-02-23T05:56:19.600Z,1008.61
2023-02-23T05:57:19.584Z,1008.63
2023-02-23T05:58:19.593Z,1008.63
2023-02-23T05:59:19.593Z,1008.67
2023-02-23T06:00:18.881Z,1008.64
2023-02-23T06:01:19.165Z,1008.62
2023-02-23T06:02:18.900Z,1008.65
2023-02-23T06:03:18.905Z,1008.64
2023-02-23T06:04:19.515Z,1008.71
2023-02-23T06:05:19.495Z,1008.68
2023-02-23T06:06:18.829Z,1008.69
2023-02-23T06:07:19.505Z,1008.69
2023-02-23T06:08:18.818Z,1008.65
2023-02-23T06:09:19.457Z,1008.72
2023-02-23T06:10:19.447Z,1008.70
2023-02-23T06:11:19.088Z,1008.68
2023-02-23T06:12:18.837Z,1008.72
2023-02-23T06:13:18.770Z,1008.71
2023-02-23T06:14:19.431Z,1008.68
2023-02-23T06:15:19.392Z,1008.74
2023-02-23T06:16:19.439Z,1008.73
2023-02-23T06:17:18.698Z,1008.78
2023-02-23T06:18:19.361Z,1008.76
2023-02-23T06:19:18.687Z,1008.78
2023-02-23T06:20:18.790Z,1008.75
2023-02-23T06:21:19.601Z,1008.80
2023-02-23T06:22:19.323Z,1008.83
2023-02-23T06:23:19.308Z,1008.79
2023-02-23T06:24:18.651Z,1008.85
2023-02-23T06:25:19.294Z,1008.86
2023-02-23T06:26:19.278Z,1008.89
2023-02-23T06:27:18.583Z,1008.88
2023-02-23T06:28:19.257Z,1008.87
2023-02-23T06:29:19.267Z,1008.87
2023-02-23T06:30:19.238Z,1008.90
2023-02-23T06:31:18.910Z,1008.89
2023-02-23T06:32:19.307Z,1008.90
2023-02-23T06:33:19.202Z,1008.89
2023-02-23T06:34:18.691Z,1008.94
2023-02-23T06:35:18.494Z,1008.99
2023-02-23T06:36:18.513Z,1008.98
2023-02-23T06:37:19.167Z,1008.96
2023-02-23T06:38:19.178Z,1008.97
2023-02-23T06:39:19.162Z,1008.98
2023-02-23T06:40:19.131Z,1008.96
2023-02-23T06:41:18.703Z,1008.97
2023-02-23T06:42:19.108Z,1009.02
2023-02-23T06:43:19.102Z,1009.04
2023-02-23T06:44:19.113Z,1009.06
2023-02-23T06:45:19.078Z,1009.01
2023-02-23T06:46:18.405Z,1008.99
2023-02-23T06:47:18.391Z,1009.05
2023-02-23T06:48:19.047Z,1009.06
2023-02-23T06:49:19.059Z,1009.08
2023-02-23T06:50:19.016Z,1009.08
2023-02-23T06:51:19.285Z,1009.10
2023-02-23T06:52:19.006Z,1009.07
2023-02-23T06:53:18.319Z,1009.07
2023-02-23T06:54:18.317Z,1009.05
2023-02-23T06:55:19.757Z,1009.06
2023-02-23T06:56:18.965Z,1009.03
2023-02-23T06:57:18.947Z,1009.08
2023-02-23T06:58:18.258Z,1009.07
2023-02-23T06:59:18.928Z,1009.07
2023-02-23T07:00:18.268Z,1009.07
2023-02-23T07:01:19.966Z,1009.05
2023-02-23T07:02:18.888Z,1009.08
2023-02-23T07:03:18.885Z,1009.05
2023-02-23T07:04:18.901Z,1009.09
2023-02-23T07:05:18.967Z,1009.07
2023-02-23T07:06:18.188Z,1009.09
2023-02-23T07:07:18.174Z,1009.10
2023-02-23T07:08:18.826Z,1009.11
2023-02-23T07:09:18.817Z,1009.11
2023-02-23T07:10:18.826Z,1009.12
2023-02-23T07:11:18.443Z,1009.12
2023-02-23T07:12:18.785Z,1009.16
2023-02-23T07:13:18.778Z,1009.15
2023-02-23T07:14:26.333Z,1009.18
2023-02-23T07:15:19.110Z,1009.18
2023-02-23T07:16:18.105Z,1009.21
2023-02-23T07:17:18.056Z,1009.27
2023-02-23T07:18:18.720Z,1009.26
2023-02-23T07:19:18.047Z,1009.28
2023-02-23T07:20:18.716Z,1009.30
2023-02-23T07:21:18.398Z,1009.29
2023-02-23T07:22:21.467Z,1009.32
2023-02-23T07:23:17.997Z,1009.33
2023-02-23T07:24:18.895Z,1009.30
2023-02-23T07:25:18.679Z,1009.31
2023-02-23T07:26:17.976Z,1009.30
2023-02-23T07:27:18.616Z,1009.33
2023-02-23T07:28:18.609Z,1009.29
2023-02-23T07:29:18.609Z,1009.32
2023-02-23T07:30:17.947Z,1009.32
2023-02-23T07:31:18.230Z,1009.36
2023-02-23T07:32:18.027Z,1009.36
2023-02-23T07:33:18.560Z,1009.37
2023-02-23T07:34:17.885Z,1009.41
2023-02-23T07:35:18.560Z,1009.38
2023-02-23T07:36:18.529Z,1009.41
2023-02-23T07:37:18.530Z,1009.42
2023-02-23T07:38:18.502Z,1009.45
2023-02-23T07:39:18.493Z,1009.46
2023-02-23T07:40:17.834Z,1009.43
2023-02-23T07:41:18.325Z,1009.46
2023-02-23T07:42:18.464Z,1009.50
2023-02-23T07:43:18.458Z,1009.50
2023-02-23T07:44:18.447Z,1009.50
2023-02-23T07:45:18.455Z,1009.50
2023-02-23T07:46:18.487Z,1009.54
2023-02-23T07:47:17.742Z,1009.49
2023-02-23T07:48:18.399Z,1009.54
2023-02-23T07:49:18.389Z,1009.49
2023-02-23T07:50:18.399Z,1009.58
2023-02-23T07:51:19.970Z,1009.55
2023-02-23T07:52:18.359Z,1009.58
2023-02-23T07:53:18.349Z,1009.59
2023-02-23T07:54:18.339Z,1009.59
2023-02-23T07:55:17.704Z,1009.58
2023-02-23T07:56:18.322Z,1009.60
2023-02-23T07:57:18.734Z,1009.58
2023-02-23T07:58:18.300Z,1009.60
2023-02-23T07:59:18.288Z,1009.63
2023-02-23T08:00:18.303Z,1009.62
2023-02-23T08:01:18.711Z,1009.65
2023-02-23T08:02:17.562Z,1009.70
2023-02-23T08:03:17.553Z,1009.67
2023-02-23T08:04:18.282Z,1009.70
2023-02-23T08:05:17.563Z,1009.73
2023-02-23T08:06:18.215Z,1009.71
2023-02-23T08:07:18.208Z,1009.71
2023-02-23T08:08:17.506Z,1009.76
2023-02-23T08:09:17.488Z,1009.71
2023-02-23T08:10:17.506Z,1009.76
2023-02-23T08:11:18.448Z,1009.71
2023-02-23T08:12:17.485Z,1009.76
2023-02-23T08:13:18.159Z,1009.76
2023-02-23T08:14:17.450Z,1009.78
2023-02-23T08:15:17.456Z,1009.77
2023-02-23T08:16:18.175Z,1009.80
2023-02-23T08:17:17.415Z,1009.77
2023-02-23T08:18:17.444Z,1009.81
2023-02-23T08:19:18.090Z,1009.80
2023-02-23T08:20:18.074Z,1009.82
2023-02-23T08:21:17.533Z,1009.86
2023-02-23T08:22:17.365Z,1009.86
2023-02-23T08:23:18.035Z,1009.82
2023-02-23T08:24:18.035Z,1009.89
2023-02-23T08:25:18.011Z,1009.89
2023-02-23T08:26:17.344Z,1009.88
2023-02-23T08:27:17.994Z,1009.91
2023-02-23T08:28:17.307Z,1009.89
2023-02-23T08:29:18.002Z,1009.88
2023-02-23T08:30:17.955Z,1009.89
2023-02-23T08:31:18.466Z,1009.91
2023-02-23T08:32:17.361Z,1009.94
2023-02-23T08:33:17.933Z,1009.96
2023-02-23T08:34:17.251Z,1009.94
2023-02-23T08:35:17.229Z,1009.93
2023-02-23T08:36:17.230Z,1009.98
2023-02-23T08:37:17.901Z,1009.92
2023-02-23T08:38:17.200Z,1009.93
2023-02-23T08:39:17.864Z,1009.90
2023-02-23T08:40:17.179Z,1009.95
2023-02-23T08:41:18.274Z,1009.91
2023-02-23T08:42:17.161Z,1009.92
2023-02-23T08:43:17.140Z,1009.97
2023-02-23T08:44:17.150Z,1009.98
2023-02-23T08:45:17.801Z,1009.93
2023-02-23T08:46:17.861Z,1009.97
2023-02-23T08:47:17.769Z,1009.96
2023-02-23T08:48:17.761Z,1010.01
2023-02-23T08:49:17.059Z,1009.95
2023-02-23T08:50:17.751Z,1009.98
2023-02-23T08:51:18.127Z,1009.96
2023-02-23T08:52:17.029Z,1010.01
2023-02-23T08:53:17.751Z,1009.95
2023-02-23T08:54:17.708Z,1009.98
2023-02-23T08:55:17.009Z,1009.98
2023-02-23T08:56:17.738Z,1010.00
2023-02-23T08:57:17.666Z,1009.99
2023-02-23T08:58:17.665Z,1010.00
2023-02-23T08:59:17.650Z,1009.96
2023-02-23T09:00:17.092Z,1009.97
2023-02-23T09:01:18.067Z,1010.02
2023-02-23T09:02:17.610Z,1009.99
2023-02-23T09:03:17.599Z,1009.97
2023-02-23T09:04:17.851Z,1010.03
2023-02-23T09:05:16.961Z,1010.00
2023-02-23T09:06:16.914Z,1010.00
2023-02-23T09:07:16.893Z,1010.01
2023-02-23T09:08:17.544Z,1009.98
2023-02-23T09:09:17.531Z,1010.00
2023-02-23T09:10:17.521Z,1010.00
2023-02-23T09:11:17.819Z,1010.04
2023-02-23T09:12:16.821Z,1010.05
2023-02-23T09:13:16.806Z,1010.03
2023-02-23T09:14:17.480Z,1010.06
2023-02-23T09:15:17.468Z,1010.01
2023-02-23T09:16:17.545Z,1010.05
2023-02-23T09:17:18.081Z,1010.07
2023-02-23T09:18:16.753Z,1010.08
2023-02-23T09:19:16.763Z,1010.10
2023-02-23T09:20:16.733Z,1010.08
2023-02-23T09:21:16.973Z,1010.08
2023-02-23T09:22:17.393Z,1010.07
2023-02-23T09:23:17.690Z,1010.11
2023-02-23T09:24:16.695Z,1010.07
2023-02-23T09:25:16.675Z,1010.11
2023-02-23T09:26:17.705Z,1010.18
2023-02-23T09:27:17.335Z,1010.13
2023-02-23T09:28:18.565Z,1010.18
2023-02-23T09:29:16.633Z,1010.19
2023-02-23T09:30:16.634Z,1010.17
2023-02-23T09:31:17.595Z,1010.20
2023-02-23T09:32:17.348Z,1010.17
2023-02-23T09:33:17.273Z,1010.18
2023-02-23T09:34:17.257Z,1010.16
2023-02-23T09:35:16.560Z,1010.20
2023-02-23T09:36:17.286Z,1010.15
2023-02-23T09:37:17.226Z,1010.19
2023-02-23T09:38:16.525Z,1010.25
2023-02-23T09:39:20.366Z,1010.25
2023-02-23T09:40:17.517Z,1010.24
2023-02-23T09:41:17.443Z,1010.26
2023-02-23T09:42:16.491Z,1010.25
2023-02-23T09:43:16.502Z,1010.26
2023-02-23T09:44:16.480Z,1010.27
2023-02-23T09:45:17.129Z,1010.29
2023-02-23T09:46:16.497Z,1010.22
2023-02-23T09:47:16.421Z,1010.26
2023-02-23T09:48:16.459Z,1010.28
2023-02-23T09:49:17.089Z,1010.26
2023-02-23T09:50:16.440Z,1010.27
2023-02-23T09:51:17.479Z,1010.29
2023-02-23T09:52:17.309Z,1010.31
2023-02-23T09:53:16.386Z,1010.31
2023-02-23T09:54:16.385Z,1010.29
2023-02-23T09:55:17.031Z,1010.32
2023-02-23T09:56:17.014Z,1010.35
2023-02-23T09:57:17.033Z,1010.41
2023-02-23T09:58:16.316Z,1010.42
2023-02-23T09:59:16.985Z,1010.38
2023-02-23T10:00:16.295Z,1010.40
2023-02-23T10:01:17.245Z,1010.42
2023-02-23T10:02:16.407Z,1010.41
2023-02-23T10:03:16.937Z,1010.45
2023-02-23T10:04:16.937Z,1010.43
2023-02-23T10:05:16.327Z,1010.42
2023-02-23T10:06:16.262Z,1010.43
2023-02-23T10:07:16.240Z,1010.46
2023-02-23T10:08:16.888Z,1010.45
2023-02-23T10:09:16.897Z,1010.46
2023-02-23T10:10:16.217Z,1010.46
2023-02-23T10:11:17.181Z,1010.49
2023-02-23T10:12:16.173Z,1010.45
2023-02-23T10:13:16.178Z,1010.46
2023-02-23T10:14:16.822Z,1010.46
2023-02-23T10:15:16.816Z,1010.47
2023-02-23T10:16:16.823Z,1010.48
2023-02-23T10:17:16.132Z,1010.46
2023-02-23T10:18:16.787Z,1010.48
2023-02-23T10:19:16.770Z,1010.49
2023-02-23T10:20:16.758Z,1010.46
2023-02-23T10:21:17.079Z,1010.49
2023-02-23T10:22:16.753Z,1010.46
2023-02-23T10:23:16.725Z,1010.50
2023-02-23T10:24:16.726Z,1010.48
2023-02-23T10:25:16.707Z,1010.48
2023-02-23T10:26:16.697Z,1010.49
2023-02-23T10:27:16.704Z,1010.49
2023-02-23T10:28:15.985Z,1010.50
2023-02-23T10:29:16.670Z,1010.48
2023-02-23T10:30:15.976Z,1010.48
2023-02-23T10:31:17.031Z,1010.49
2023-02-23T10:32:16.776Z,1010.48
2023-02-23T10:33:15.954Z,1010.45
2023-02-23T10:34:15.923Z,1010.49
2023-02-23T10:35:16.602Z,1010.54
2023-02-23T10:36:16.585Z,1010.49
2023-02-23T10:37:15.927Z,1010.48
2023-02-23T10:38:16.573Z,1010.54
2023-02-23T10:39:15.866Z,1010.52
2023-02-23T10:40:15.868Z,1010.49
2023-02-23T10:41:15.882Z,1010.48
2023-02-23T10:42:16.520Z,1010.49
2023-02-23T10:43:15.867Z,1010.51
2023-02-23T10:44:17.360Z,1010.50
2023-02-23T10:45:15.807Z,1010.51
2023-02-23T10:46:16.532Z,1010.50
2023-02-23T10:47:15.807Z,1010.52
2023-02-23T10:48:16.524Z,1010.53
2023-02-23T10:49:16.448Z,1010.57
2023-02-23T10:50:15.757Z,1010.57
2023-02-23T10:51:16.451Z,1010.57
2023-02-23T10:52:16.418Z,1010.56
2023-02-23T10:53:16.450Z,1010.59
2023-02-23T10:54:16.388Z,1010.63
2023-02-23T10:55:17.646Z,1010.61
2023-02-23T10:56:16.370Z,1010.61
2023-02-23T10:57:16.358Z,1010.59
2023-02-23T10:58:16.359Z,1010.59
2023-02-23T10:59:16.601Z,1010.54
2023-02-23T11:00:16.327Z,1010.63
2023-02-23T11:01:16.936Z,1010.64
2023-02-23T11:02:16.789Z,1010.60
2023-02-23T11:03:16.702Z,1010.58
2023-02-23T11:04:16.765Z,1010.62
2023-02-23T11:05:16.417Z,1010.63
2023-02-23T11:06:16.519Z,1010.62
2023-02-23T11:07:16.572Z,1010.63
2023-02-23T11:08:16.517Z,1010.66
2023-02-23T11:09:16.219Z,1010.65
2023-02-23T11:10:17.008Z,1010.64
2023-02-23T11:11:16.201Z,1010.62
2023-02-23T11:12:16.438Z,1010.66
2023-02-23T11:13:16.191Z,1010.67
2023-02-23T11:14:16.169Z,1010.66
2023-02-23T11:15:16.150Z,1010.70
2023-02-23T11:16:16.173Z,1010.68
2023-02-23T11:17:16.131Z,1010.73
2023-02-23T11:18:16.143Z,1010.76
2023-02-23T11:19:16.386Z,1010.71
2023-02-23T11:20:16.101Z,1010.70
2023-02-23T11:21:16.083Z,1010.70
2023-02-23T11:22:16.096Z,1010.69
2023-02-23T11:23:16.342Z,1010.64
2023-02-23T11:24:15.371Z,1010.63
2023-02-23T11:25:16.322Z,1010.64
2023-02-23T11:26:16.066Z,1010.61
2023-02-23T11:27:16.293Z,1010.56
2023-02-23T11:28:16.035Z,1010.59
2023-02-23T11:29:16.020Z,1010.55
2023-02-23T11:30:15.314Z,1010.57
2023-02-23T11:31:16.055Z,1010.57
2023-02-23T11:32:16.136Z,1010.60
2023-02-23T11:33:15.985Z,1010.61
2023-02-23T11:34:15.944Z,1010.61
2023-02-23T11:35:15.939Z,1010.59
2023-02-23T11:36:16.207Z,1010.58
2023-02-23T11:37:15.233Z,1010.57
2023-02-23T11:38:15.904Z,1010.56
2023-02-23T11:39:15.913Z,1010.56
2023-02-23T11:40:15.226Z,1010.50
2023-02-23T11:41:15.875Z,1010.55
2023-02-23T11:42:15.186Z,1010.49
2023-02-23T11:43:15.846Z,1010.52
2023-02-23T11:44:15.864Z,1010.57
2023-02-23T11:45:15.835Z,1010.58
2023-02-23T11:46:15.885Z,1010.53
2023-02-23T11:47:15.807Z,1010.52
2023-02-23T11:48:15.799Z,1010.50
2023-02-23T11:49:15.818Z,1010.47
2023-02-23T11:50:15.810Z,1010.49
2023-02-23T11:51:15.077Z,1010.50
2023-02-23T11:52:15.775Z,1010.51
2023-02-23T11:53:15.740Z,1010.48
2023-02-23T11:54:15.749Z,1010.46
2023-02-23T11:55:15.087Z,1010.46
2023-02-23T11:56:15.724Z,1010.51
2023-02-23T11:57:15.735Z,1010.49
2023-02-23T11:58:15.696Z,1010.49
2023-02-23T11:59:15.701Z,1010.50
2023-02-23T12:00:15.743Z,1010.54
2023-02-23T12:01:15.005Z,1010.51
2023-02-23T12:02:16.923Z,1010.52
2023-02-23T12:03:15.958Z,1010.49
2023-02-23T12:04:15.625Z,1010.47
2023-02-23T12:05:15.693Z,1010.51